Time;durP1;ratioP1;P1;durP2;ratioP2;P2;SDS_P1;SDS_P2;PMS_P1;PMS_P2;Temp;Humidity;BMP_temperature;BMP_pressure;BME280_temperature;BME280_humidity;BME280_pressure;Samples;Min_cycle;Max_cycle;Signal;HPM_P1;HPM_P2
2023/10/25 00:02:17;;;;;;;1.63;1.20;;;17.30;99.90;;;;;;5039723;28;20211;-88
2023/10/25 00:04:43;;;;;;;1.47;1.20;;;17.30;99.90;;;;;;5035160;28;20175;-88
2023/10/25 00:07:08;;;;;;;1.57;1.07;;;17.30;99.90;;;;;;5047118;28;20219;-88
2023/10/25 00:09:34;;;;;;;1.33;1.10;;;17.30;99.90;;;;;;5037471;28;20277;-88
2023/10/25 00:12:00;;;;;;;2.53;1.60;;;17.30;99.90;;;;;;5048129;28;20470;-88
2023/10/25 00:14:27;;;;;;;1.57;1.13;;;17.30;99.90;;;;;;5036879;28;20557;-88
2023/10/25 00:16:53;;;;;;;1.67;1.20;;;17.30;99.90;;;;;;5048426;28;20357;-88
2023/10/25 00:19:18;;;;;;;1.53;1.30;;;17.30;99.90;;;;;;5036718;28;20515;-88
2023/10/25 00:21:44;;;;;;;1.60;1.30;;;17.20;99.90;;;;;;5049218;28;20757;-88
2023/10/25 00:24:10;;;;;;;1.30;1.20;;;17.20;99.90;;;;;;5035686;28;20177;-88
2023/10/25 00:26:36;;;;;;;1.37;1.20;;;17.20;99.90;;;;;;5048676;28;20180;-87
2023/10/25 00:29:01;;;;;;;2.10;1.30;;;17.20;99.90;;;;;;5038008;28;20271;-88
2023/10/25 00:34:03;;;;;;;1.40;1.20;;;17.20;99.90;;;;;;5031854;22;20231;-86
2023/10/25 00:36:29;;;;;;;1.30;1.20;;;17.20;99.90;;;;;;5007784;28;20565;-86
2023/10/25 00:38:55;;;;;;;1.27;1.17;;;17.20;99.90;;;;;;5011466;28;20233;-86
2023/10/25 00:41:20;;;;;;;1.80;1.20;;;17.20;99.90;;;;;;5026769;28;20205;-86
2023/10/25 00:43:47;;;;;;;1.13;1.03;;;17.20;99.90;;;;;;5007557;28;20249;-86
2023/10/25 00:46:20;;;;;;;1.87;1.30;;;17.20;99.90;;;;;;5022068;28;20475;-87
2023/10/25 00:48:47;;;;;;;1.20;1.10;;;17.20;99.90;;;;;;5006483;28;20177;-87
2023/10/25 00:51:14;;;;;;;1.50;1.10;;;17.20;99.90;;;;;;5015008;28;20172;-86
2023/10/25 00:53:51;;;;;;;1.77;1.30;;;17.20;99.90;;;;;;5022610;28;20184;-86
2023/10/25 00:56:17;;;;;;;2.40;1.20;;;17.20;99.90;;;;;;5032400;28;20188;-86
2023/10/25 00:58:45;;;;;;;1.37;1.10;;;17.20;99.90;;;;;;5006176;28;20450;-86
2023/10/25 01:01:12;;;;;;;1.30;1.20;;;17.20;99.90;;;;;;5033599;28;20604;-86
2023/10/25 01:03:38;;;;;;;3.57;1.20;;;17.20;99.90;;;;;;5013115;28;20243;-86
2023/10/25 01:06:04;;;;;;;1.40;1.20;;;17.20;99.90;;;;;;4999303;28;20289;-86
2023/10/25 01:08:30;;;;;;;1.63;1.20;;;17.20;99.90;;;;;;5011563;28;20512;-86
2023/10/25 01:10:57;;;;;;;2.00;1.20;;;17.20;99.90;;;;;;5016746;28;20169;-86
2023/10/25 01:13:23;;;;;;;1.23;1.10;;;17.20;99.90;;;;;;5012156;28;20246;-86
2023/10/25 01:15:48;;;;;;;1.63;1.27;;;17.20;99.90;;;;;;5014723;28;20247;-87
2023/10/25 01:18:14;;;;;;;1.50;1.30;;;17.20;99.90;;;;;;5023374;28;20549;-86
2023/10/25 01:20:41;;;;;;;1.13;1.03;;;17.10;99.90;;;;;;4998802;28;20279;-86
2023/10/25 01:23:07;;;;;;;1.43;1.20;;;17.10;99.90;;;;;;5005796;28;20216;-86
2023/10/25 01:25:34;;;;;;;2.03;1.20;;;17.20;99.90;;;;;;5001607;28;20179;-86
2023/10/25 01:28:00;;;;;;;1.57;1.13;;;17.10;99.90;;;;;;5002601;28;20193;-86
2023/10/25 01:30:27;;;;;;;1.33;1.17;;;17.10;99.90;;;;;;5010338;28;20562;-86
2023/10/25 01:32:53;;;;;;;1.40;1.10;;;17.10;99.90;;;;;;5014839;28;20181;-86
2023/10/25 01:35:19;;;;;;;2.10;1.30;;;17.10;99.90;;;;;;5025702;28;20354;-86
2023/10/25 01:37:45;;;;;;;1.57;1.20;;;17.10;99.90;;;;;;5016192;28;20173;-86
2023/10/25 01:40:12;;;;;;;1.63;1.20;;;17.10;99.90;;;;;;5006131;28;20207;-86
2023/10/25 01:42:37;;;;;;;1.10;1.00;;;17.10;99.90;;;;;;5015830;28;20222;-86
2023/10/25 01:45:04;;;;;;;1.63;1.00;;;17.10;99.90;;;;;;5022819;28;20564;-86
2023/10/25 01:47:30;;;;;;;1.27;1.10;;;17.10;99.90;;;;;;5035291;28;20194;-87
2023/10/25 01:49:56;;;;;;;1.47;1.00;;;17.10;99.90;;;;;;5022131;28;20268;-87
2023/10/25 01:52:21;;;;;;;1.30;1.20;;;17.10;99.90;;;;;;5032890;28;20220;-86
2023/10/25 01:54:50;;;;;;;1.20;1.10;;;17.10;99.90;;;;;;5012626;28;20258;-86
2023/10/25 01:57:16;;;;;;;1.40;1.10;;;17.10;99.90;;;;;;4998259;28;20186;-86
2023/10/25 01:59:43;;;;;;;1.30;1.10;;;17.10;99.90;;;;;;5009362;28;20325;-86
2023/10/25 02:02:12;;;;;;;1.40;1.20;;;17.10;99.90;;;;;;5016427;28;20207;-86
2023/10/25 02:04:38;;;;;;;1.10;1.00;;;17.10;99.90;;;;;;5002337;28;20172;-87
2023/10/25 02:07:04;;;;;;;1.53;1.10;;;17.10;99.90;;;;;;5015596;28;20173;-87
2023/10/25 02:09:30;;;;;;;1.80;1.30;;;17.10;99.90;;;;;;5011922;28;20194;-86
2023/10/25 02:11:57;;;;;;;1.40;1.00;;;17.10;99.90;;;;;;5012628;28;20175;-87
2023/10/25 02:14:23;;;;;;;2.03;1.20;;;17.00;99.90;;;;;;5014378;28;20582;-87
2023/10/25 02:16:49;;;;;;;1.30;1.20;;;17.10;99.90;;;;;;5007346;28;20191;-87
2023/10/25 02:19:15;;;;;;;1.40;1.30;;;17.00;99.90;;;;;;5003206;28;20560;-87
2023/10/25 02:21:41;;;;;;;1.20;1.10;;;17.10;99.90;;;;;;5007272;28;20224;-87
2023/10/25 02:24:07;;;;;;;1.20;1.10;;;17.00;99.90;;;;;;5016857;28;20210;-87
2023/10/25 02:26:33;;;;;;;1.30;1.10;;;17.00;99.90;;;;;;5023199;28;20181;-86
2023/10/25 02:29:00;;;;;;;1.47;1.10;;;17.00;99.90;;;;;;5016721;28;20172;-86
2023/10/25 02:31:25;;;;;;;1.03;0.93;;;17.10;99.90;;;;;;5005850;28;20176;-87
2023/10/25 02:33:51;;;;;;;1.80;1.40;;;17.00;99.90;;;;;;5018713;28;20199;-86
2023/10/25 02:36:17;;;;;;;1.00;1.00;;;17.10;99.90;;;;;;5022947;28;20484;-87
2023/10/25 02:38:42;;;;;;;1.47;1.20;;;17.00;99.90;;;;;;5018378;28;20180;-86
2023/10/25 02:41:08;;;;;;;1.57;1.13;;;17.00;99.90;;;;;;5023849;28;20179;-86
2023/10/25 02:43:35;;;;;;;1.43;1.13;;;17.00;99.90;;;;;;5034101;28;20177;-87
2023/10/25 02:46:08;;;;;;;1.67;1.10;;;17.00;99.90;;;;;;5009031;28;20184;-87
2023/10/25 02:48:35;;;;;;;1.10;1.00;;;17.00;99.90;;;;;;5014553;28;20668;-87
2023/10/25 02:51:00;;;;;;;1.23;1.00;;;17.00;99.90;;;;;;5031890;28;20176;-86
2023/10/25 02:53:26;;;;;;;1.30;1.20;;;17.00;99.90;;;;;;5000010;28;20190;-86
2023/10/25 02:56:03;;;;;;;1.00;0.90;;;17.00;99.90;;;;;;5002398;28;20187;-87
2023/10/25 02:58:28;;;;;;;1.20;1.10;;;17.00;99.90;;;;;;5004286;28;20209;-87
2023/10/25 03:00:56;;;;;;;1.30;1.10;;;17.00;99.90;;;;;;5001515;28;20186;-87
2023/10/25 03:03:22;;;;;;;1.10;1.00;;;17.00;99.90;;;;;;5005610;28;20462;-86
2023/10/25 03:05:48;;;;;;;1.13;1.00;;;17.00;99.90;;;;;;4998745;28;20169;-86
2023/10/25 03:08:14;;;;;;;1.20;1.00;;;16.90;99.90;;;;;;5009399;28;20432;-85
2023/10/25 03:10:40;;;;;;;1.70;1.00;;;16.90;99.90;;;;;;4999704;28;20223;-86
2023/10/25 03:13:06;;;;;;;1.10;1.00;;;17.00;99.90;;;;;;5007880;28;20240;-86
2023/10/25 03:15:32;;;;;;;1.07;0.97;;;17.00;99.90;;;;;;4997075;28;20443;-87
2023/10/25 03:17:58;;;;;;;2.27;1.40;;;16.90;99.90;;;;;;5000020;28;20207;-87
2023/10/25 03:20:23;;;;;;;1.37;0.93;;;16.90;99.90;;;;;;5014036;28;20439;-87
2023/10/25 03:22:50;;;;;;;1.33;1.10;;;16.90;99.90;;;;;;5000858;28;20605;-87
2023/10/25 03:25:16;;;;;;;1.03;0.93;;;16.90;99.90;;;;;;5014791;28;20186;-87
2023/10/25 03:27:41;;;;;;;1.00;0.90;;;16.90;99.90;;;;;;5021229;28;20167;-87
2023/10/25 03:30:08;;;;;;;1.73;1.17;;;16.90;99.90;;;;;;5014705;28;20174;-87
2023/10/25 03:32:34;;;;;;;0.93;0.90;;;16.90;99.90;;;;;;5012703;28;20171;-87
2023/10/25 03:35:00;;;;;;;1.20;1.10;;;16.90;99.90;;;;;;5019010;28;20205;-87
2023/10/25 03:37:25;;;;;;;0.90;0.90;;;16.90;99.90;;;;;;5006833;28;20272;-87
2023/10/25 03:39:51;;;;;;;1.10;1.00;;;16.90;99.90;;;;;;5004922;28;20491;-87
2023/10/25 03:42:17;;;;;;;1.63;1.00;;;16.90;99.90;;;;;;5004702;28;20256;-87
2023/10/25 03:44:42;;;;;;;1.87;1.10;;;16.90;99.90;;;;;;5013308;28;20536;-87
2023/10/25 03:47:08;;;;;;;1.67;1.10;;;16.90;99.90;;;;;;5018853;28;20535;-87
2023/10/25 03:49:33;;;;;;;1.33;1.20;;;16.90;99.90;;;;;;5038247;28;20185;-87
2023/10/25 03:51:59;;;;;;;1.90;0.83;;;16.90;99.90;;;;;;5020004;28;20178;-87
2023/10/25 03:54:25;;;;;;;1.33;1.10;;;16.80;99.90;;;;;;5012743;28;20207;-87
2023/10/25 03:56:50;;;;;;;2.57;1.10;;;16.90;99.90;;;;;;5001061;28;20243;-87
2023/10/25 03:59:16;;;;;;;1.13;1.03;;;16.80;99.90;;;;;;5012763;28;20447;-87
2023/10/25 04:01:42;;;;;;;1.33;1.00;;;16.80;99.90;;;;;;5001190;28;20271;-87
2023/10/25 04:04:09;;;;;;;1.20;0.93;;;16.80;99.90;;;;;;5011378;28;20171;-87
2023/10/25 04:06:35;;;;;;;1.03;0.90;;;16.80;99.90;;;;;;4998399;28;20190;-87
2023/10/25 04:09:01;;;;;;;1.10;1.00;;;16.80;99.90;;;;;;5009090;28;20249;-87
2023/10/25 04:11:27;;;;;;;1.07;0.83;;;16.80;99.90;;;;;;5000470;28;20169;-87
2023/10/25 04:13:53;;;;;;;2.10;1.33;;;16.80;99.90;;;;;;5024001;28;20175;-87
2023/10/25 04:16:19;;;;;;;1.37;0.90;;;16.80;99.90;;;;;;5000386;28;20206;-87
2023/10/25 04:18:44;;;;;;;1.20;0.97;;;16.80;99.90;;;;;;5004220;28;20182;-87
2023/10/25 04:21:12;;;;;;;1.00;0.90;;;16.80;99.90;;;;;;5026510;28;20199;-87
2023/10/25 04:23:38;;;;;;;1.67;0.90;;;16.80;99.90;;;;;;5006206;28;20457;-87
2023/10/25 04:26:11;;;;;;;1.33;0.97;;;16.80;99.90;;;;;;4997855;28;20235;-87
2023/10/25 04:28:39;;;;;;;1.43;1.00;;;16.80;99.90;;;;;;5000513;28;20200;-87
2023/10/25 04:31:06;;;;;;;1.20;1.10;;;16.80;99.90;;;;;;5006885;28;20546;-87
2023/10/25 04:33:32;;;;;;;1.10;1.00;;;16.80;99.90;;;;;;4998743;28;20181;-87
2023/10/25 04:35:58;;;;;;;1.00;0.90;;;16.80;99.90;;;;;;5015855;28;20204;-87
2023/10/25 04:38:24;;;;;;;1.10;1.00;;;16.80;99.90;;;;;;5014522;28;20230;-87
2023/10/25 04:40:53;;;;;;;0.90;0.90;;;16.80;99.90;;;;;;5016285;28;20596;-87
2023/10/25 04:43:18;;;;;;;1.10;1.00;;;16.70;99.90;;;;;;5016921;28;20207;-87
2023/10/25 04:45:45;;;;;;;1.60;1.00;;;16.70;99.90;;;;;;5004372;28;20170;-87
2023/10/25 04:48:11;;;;;;;1.17;0.97;;;16.70;99.90;;;;;;5017471;28;20471;-87
2023/10/25 04:50:38;;;;;;;1.37;0.90;;;16.70;99.90;;;;;;5011843;28;20207;-87
2023/10/25 04:53:05;;;;;;;1.40;0.90;;;16.70;99.90;;;;;;4997612;28;20419;-87
2023/10/25 04:55:34;;;;;;;1.93;1.17;;;16.70;99.90;;;;;;5008057;28;20190;-87
2023/10/25 04:58:00;;;;;;;1.63;1.00;;;16.70;99.90;;;;;;4997834;28;20429;-87
2023/10/25 05:00:43;;;;;;;1.50;1.20;;;16.70;99.90;;;;;;5006298;28;20193;-87
2023/10/25 05:03:11;;;;;;;1.97;0.90;;;16.70;99.90;;;;;;5000066;28;20525;-87
2023/10/25 05:05:39;;;;;;;1.23;1.03;;;16.70;99.90;;;;;;5005325;28;20410;-87
2023/10/25 05:08:09;;;;;;;1.33;1.00;;;16.70;99.90;;;;;;4996573;28;20204;-87
2023/10/25 05:10:35;;;;;;;1.27;1.07;;;16.70;99.90;;;;;;5002743;28;20424;-87
2023/10/25 05:13:01;;;;;;;2.40;1.20;;;16.70;99.90;;;;;;5001475;28;20202;-87
2023/10/25 05:15:28;;;;;;;2.70;1.10;;;16.70;99.90;;;;;;4998105;28;20184;-87
2023/10/25 05:17:54;;;;;;;1.47;1.07;;;16.70;99.90;;;;;;5008504;28;20190;-87
2023/10/25 05:20:20;;;;;;;1.53;1.00;;;16.70;99.90;;;;;;5011964;28;20171;-87
2023/10/25 05:22:55;;;;;;;2.23;1.10;;;16.70;99.90;;;;;;5005366;28;20299;-87
2023/10/25 05:25:21;;;;;;;1.47;0.90;;;16.70;99.90;;;;;;4992611;28;20195;-87
2023/10/25 05:27:48;;;;;;;1.20;1.07;;;16.70;99.90;;;;;;5003434;28;20201;-87
2023/10/25 05:30:15;;;;;;;1.83;1.10;;;16.70;99.90;;;;;;4993378;28;20249;-87
2023/10/25 05:32:47;;;;;;;2.40;1.20;;;16.70;99.90;;;;;;5008053;28;20322;-87
2023/10/25 05:35:14;;;;;;;1.47;1.00;;;16.70;99.90;;;;;;5010271;28;20283;-87
2023/10/25 05:37:40;;;;;;;1.23;1.10;;;16.70;99.90;;;;;;4999566;28;20267;-87
2023/10/25 05:40:06;;;;;;;1.00;0.90;;;16.70;99.90;;;;;;5009924;28;20180;-87
2023/10/25 05:42:44;;;;;;;1.93;1.00;;;16.70;99.90;;;;;;5024827;28;20212;-87
2023/10/25 05:45:10;;;;;;;1.23;0.90;;;16.70;99.90;;;;;;4992406;28;20177;-87
2023/10/25 05:47:36;;;;;;;2.07;1.00;;;16.70;99.90;;;;;;5002190;28;20501;-87
2023/10/25 05:50:02;;;;;;;1.83;1.30;;;16.70;99.90;;;;;;4987866;28;20504;-87
2023/10/25 05:52:28;;;;;;;1.60;0.90;;;16.70;99.90;;;;;;5018436;28;20345;-87
2023/10/25 05:54:54;;;;;;;1.30;1.00;;;16.70;99.90;;;;;;4989971;28;20237;-87
2023/10/25 05:57:20;;;;;;;2.23;1.10;;;16.70;99.90;;;;;;4998516;28;20364;-87
2023/10/25 05:59:46;;;;;;;2.23;1.10;;;16.70;99.90;;;;;;5008989;28;20188;-87
2023/10/25 06:02:14;;;;;;;2.67;1.10;;;16.70;99.90;;;;;;4991394;28;20481;-87
2023/10/25 06:04:42;;;;;;;2.10;1.10;;;16.70;99.90;;;;;;5020509;28;20179;-87
2023/10/25 06:07:12;;;;;;;3.93;1.13;;;16.70;99.90;;;;;;5008775;28;20180;-87
2023/10/25 06:09:39;;;;;;;2.47;1.30;;;16.70;99.90;;;;;;4996315;28;20501;-86
2023/10/25 06:12:06;;;;;;;1.77;1.20;;;16.70;99.90;;;;;;4987434;28;20178;-86
2023/10/25 06:14:32;;;;;;;2.67;1.10;;;16.70;99.90;;;;;;4997804;28;20371;-87
2023/10/25 06:16:58;;;;;;;1.93;1.00;;;16.70;99.90;;;;;;5007147;28;20176;-87
2023/10/25 06:19:25;;;;;;;1.50;1.30;;;16.70;99.90;;;;;;4998580;28;20174;-87
2023/10/25 06:21:51;;;;;;;1.50;1.20;;;16.70;99.90;;;;;;4988724;28;20202;-87
2023/10/25 06:24:17;;;;;;;1.23;1.07;;;16.70;99.90;;;;;;4996826;28;20246;-87
2023/10/25 06:26:43;;;;;;;2.90;1.40;;;16.70;99.90;;;;;;5005999;28;20176;-87
2023/10/25 06:29:09;;;;;;;1.63;1.40;;;16.70;99.90;;;;;;4992065;28;20291;-87
2023/10/25 06:31:35;;;;;;;1.87;1.30;;;16.70;99.90;;;;;;5008036;28;20316;-87
2023/10/25 06:34:00;;;;;;;2.50;1.60;;;16.70;99.90;;;;;;4996231;28;20193;-87
2023/10/25 06:36:26;;;;;;;1.30;1.20;;;16.70;99.90;;;;;;5009160;28;20283;-87
2023/10/25 06:38:52;;;;;;;2.23;1.40;;;16.70;99.90;;;;;;5001801;28;20268;-87
2023/10/25 06:41:22;;;;;;;1.80;1.40;;;16.70;99.90;;;;;;5025339;28;20443;-87
2023/10/25 06:43:48;;;;;;;2.27;1.50;;;16.70;99.90;;;;;;5001695;28;20183;-87
2023/10/25 06:46:14;;;;;;;2.90;1.40;;;16.70;99.90;;;;;;5005979;28;20233;-87
2023/10/25 06:48:40;;;;;;;7.40;1.43;;;16.70;99.90;;;;;;5003721;28;20173;-87
2023/10/25 06:51:08;;;;;;;3.23;1.63;;;16.70;99.90;;;;;;5000856;28;20553;-87
2023/10/25 06:53:36;;;;;;;2.57;1.37;;;16.70;99.90;;;;;;5020093;28;20643;-87
2023/10/25 06:56:02;;;;;;;2.80;1.40;;;16.70;99.90;;;;;;4996575;28;20417;-87
2023/10/25 06:58:28;;;;;;;3.67;1.40;;;16.80;99.90;;;;;;4989941;28;20583;-87
2023/10/25 07:00:56;;;;;;;2.37;1.40;;;16.70;99.90;;;;;;5002776;28;20168;-88
2023/10/25 07:03:34;;;;;;;3.10;1.60;;;16.70;99.90;;;;;;5017089;28;20190;-88
2023/10/25 07:06:02;;;;;;;2.30;1.20;;;16.70;99.90;;;;;;5016083;28;20575;-88
2023/10/25 07:08:31;;;;;;;3.47;1.50;;;16.80;99.90;;;;;;5006209;28;20229;-88
2023/10/25 07:10:58;;;;;;;5.23;1.13;;;16.80;99.90;;;;;;4999721;28;20393;-88
2023/10/25 07:13:32;;;;;;;2.93;1.60;;;16.80;99.90;;;;;;5008232;28;20550;-88
2023/10/25 07:15:59;;;;;;;3.33;1.80;;;16.80;99.90;;;;;;5003723;28;20173;-88
2023/10/25 07:18:25;;;;;;;2.50;1.37;;;16.80;99.90;;;;;;4991961;28;20272;-87
2023/10/25 07:20:51;;;;;;;2.33;1.17;;;16.80;99.90;;;;;;5003482;28;20235;-87
2023/10/25 07:23:17;;;;;;;2.40;1.30;;;16.80;99.90;;;;;;4991587;28;20218;-88
2023/10/25 07:25:44;;;;;;;2.17;1.03;;;16.80;99.90;;;;;;4996777;28;20500;-88
2023/10/25 07:28:10;;;;;;;2.90;1.33;;;16.80;99.90;;;;;;5009756;28;20238;-87
2023/10/25 07:30:36;;;;;;;2.57;1.50;;;16.90;99.90;;;;;;5021474;28;20561;-87
2023/10/25 07:33:02;;;;;;;2.23;1.40;;;16.90;99.90;;;;;;4990371;28;20412;-87
2023/10/25 07:35:28;;;;;;;3.43;1.50;;;16.90;99.90;;;;;;4995209;28;20546;-87
2023/10/25 07:37:53;;;;;;;4.60;1.83;;;17.00;99.90;;;;;;4992635;28;20422;-87
2023/10/25 07:40:19;;;;;;;3.13;1.60;;;17.00;99.90;;;;;;5009088;28;20245;-87
2023/10/25 07:42:46;;;;;;;1.53;1.37;;;17.10;99.90;;;;;;5001032;28;20331;-87
2023/10/25 07:45:12;;;;;;;3.33;2.00;;;17.10;99.90;;;;;;5007070;28;20177;-87
2023/10/25 07:47:38;;;;;;;3.53;1.60;;;17.10;99.90;;;;;;4999782;28;20516;-87
2023/10/25 07:50:05;;;;;;;1.93;1.50;;;17.10;99.90;;;;;;5022293;28;20274;-87
2023/10/25 07:52:33;;;;;;;2.13;1.67;;;17.10;99.90;;;;;;5018604;28;20283;-87
2023/10/25 07:54:59;;;;;;;2.73;1.50;;;17.00;99.90;;;;;;5007107;28;20228;-87
2023/10/25 07:57:29;;;;;;;2.33;1.50;;;17.00;99.90;;;;;;4999603;28;20173;-87
2023/10/25 07:59:55;;;;;;;3.90;1.77;;;17.00;99.90;;;;;;4987096;28;20447;-87
2023/10/25 08:02:21;;;;;;;2.30;1.50;;;17.00;99.90;;;;;;5017511;28;20202;-87
2023/10/25 08:04:46;;;;;;;3.57;1.60;;;17.00;99.90;;;;;;4987227;28;20259;-87
2023/10/25 08:07:12;;;;;;;2.17;1.30;;;17.00;99.90;;;;;;5017322;28;20517;-87
2023/10/25 08:09:42;;;;;;;3.37;1.60;;;17.00;99.90;;;;;;4988759;28;20177;-87
2023/10/25 08:12:08;;;;;;;4.77;1.63;;;17.00;99.90;;;;;;5000352;28;20184;-87
2023/10/25 08:14:34;;;;;;;2.33;1.40;;;17.00;99.90;;;;;;4991434;28;20568;-87
2023/10/25 08:16:59;;;;;;;2.70;1.53;;;17.00;99.90;;;;;;5015655;28;20196;-87
2023/10/25 08:19:25;;;;;;;2.77;1.40;;;17.00;99.90;;;;;;4993367;28;20347;-87
2023/10/25 08:21:51;;;;;;;3.40;1.37;;;17.00;99.90;;;;;;5013050;28;20201;-87
2023/10/25 08:24:17;;;;;;;3.30;1.60;;;17.00;99.90;;;;;;5012923;28;20551;-87
2023/10/25 08:26:45;;;;;;;4.27;2.00;;;17.00;99.90;;;;;;4992352;28;20349;-87
2023/10/25 08:29:11;;;;;;;4.63;1.63;;;17.00;99.90;;;;;;5003007;28;20300;-87
2023/10/25 08:31:37;;;;;;;4.73;1.53;;;17.00;99.90;;;;;;5008994;28;20406;-87
2023/10/25 08:34:03;;;;;;;4.03;1.60;;;17.00;99.90;;;;;;4999428;28;20192;-87
2023/10/25 08:36:30;;;;;;;1.87;1.50;;;17.00;99.90;;;;;;5010096;28;20179;-87
2023/10/25 08:38:57;;;;;;;2.37;1.50;;;17.00;99.90;;;;;;5000976;28;20169;-87
2023/10/25 08:41:25;;;;;;;3.27;1.70;;;17.00;99.90;;;;;;5011748;28;20549;-87
2023/10/25 08:43:51;;;;;;;3.87;1.60;;;17.00;99.90;;;;;;5018578;28;20177;-88
2023/10/25 08:46:18;;;;;;;2.80;1.20;;;17.00;99.90;;;;;;5019186;28;20221;-88
2023/10/25 08:48:44;;;;;;;2.73;1.50;;;17.00;99.90;;;;;;4998663;28;20185;-87
2023/10/25 08:51:13;;;;;;;2.30;1.60;;;17.00;99.90;;;;;;5029788;28;20240;-87
2023/10/25 08:53:41;;;;;;;3.70;1.60;;;17.00;99.90;;;;;;4998732;28;20348;-87
2023/10/25 08:56:08;;;;;;;4.63;1.53;;;17.00;99.90;;;;;;5011539;28;20462;-87
2023/10/25 08:58:34;;;;;;;2.67;1.47;;;17.00;99.90;;;;;;5002474;28;20231;-87
2023/10/25 09:01:00;;;;;;;2.03;1.50;;;17.00;99.90;;;;;;5011069;28;20181;-87
2023/10/25 09:03:31;;;;;;;2.53;1.50;;;17.00;99.90;;;;;;5004547;28;20204;-87
2023/10/25 09:05:58;;;;;;;2.80;1.50;;;17.00;99.90;;;;;;4994489;28;20165;-87
2023/10/25 09:08:24;;;;;;;4.97;1.83;;;17.00;99.90;;;;;;4995138;28;20432;-88
2023/10/25 09:11:04;;;;;;;3.30;1.37;;;17.00;99.90;;;;;;5007424;28;20338;-87
2023/10/25 09:13:33;;;;;;;4.43;1.70;;;17.00;99.90;;;;;;5006181;28;20538;-87
2023/10/25 09:16:03;;;;;;;4.57;1.57;;;17.00;99.90;;;;;;5003274;28;20255;-87
2023/10/25 09:18:29;;;;;;;2.43;1.40;;;17.00;99.90;;;;;;5006155;28;20423;-87
2023/10/25 09:20:55;;;;;;;3.40;1.40;;;17.00;99.90;;;;;;5004441;28;20177;-87
2023/10/25 09:23:21;;;;;;;4.27;1.60;;;17.00;99.90;;;;;;5010313;28;20629;-87
2023/10/25 09:25:49;;;;;;;2.33;1.40;;;17.00;99.90;;;;;;4999713;28;20533;-87
2023/10/25 09:28:16;;;;;;;6.53;1.70;;;17.00;99.90;;;;;;5008550;28;20373;-87
2023/10/25 09:30:42;;;;;;;2.47;1.33;;;17.00;99.90;;;;;;5000151;28;20232;-87
2023/10/25 09:33:09;;;;;;;4.30;1.60;;;17.00;99.90;;;;;;5012256;28;20400;-87
2023/10/25 09:35:36;;;;;;;3.43;1.60;;;17.00;99.90;;;;;;5002953;28;20341;-87
2023/10/25 09:38:03;;;;;;;3.57;1.23;;;17.00;99.90;;;;;;5008336;28;20247;-87
2023/10/25 09:40:29;;;;;;;3.17;1.40;;;17.00;99.90;;;;;;5003435;28;20179;-88
2023/10/25 09:43:01;;;;;;;3.37;1.60;;;17.00;99.90;;;;;;4991627;28;20324;-88
2023/10/25 09:45:31;;;;;;;3.57;1.60;;;17.00;99.90;;;;;;5021151;28;20169;-88
2023/10/25 09:48:05;;;;;;;4.07;1.40;;;17.00;99.90;;;;;;4990311;28;20372;-88
2023/10/25 09:50:37;;;;;;;3.43;1.27;;;17.00;99.90;;;;;;5000862;28;20342;-85
2023/10/25 09:53:27;;;;;;;1.73;1.10;;;17.00;99.90;;;;;;5008257;28;20184;-85
2023/10/25 09:56:00;;;;;;;3.47;1.40;;;17.00;99.90;;;;;;5018252;28;20437;-86
2023/10/25 09:58:28;;;;;;;3.40;1.40;;;17.00;99.90;;;;;;5009814;28;20624;-86
2023/10/25 10:00:55;;;;;;;3.77;1.30;;;17.00;99.90;;;;;;5003008;28;20175;-86
2023/10/25 10:03:33;;;;;;;2.33;1.30;;;17.00;99.90;;;;;;4990424;28;20518;-88
2023/10/25 10:06:27;;;;;;;4.40;1.40;;;17.00;99.90;;;;;;5003273;28;20202;-87
2023/10/25 10:09:05;;;;;;;6.17;1.87;;;17.00;99.90;;;;;;5006746;28;20509;-87
2023/10/25 10:11:37;;;;;;;3.00;1.47;;;17.00;99.90;;;;;;5012702;28;20181;-87
2023/10/25 10:14:31;;;;;;;3.23;1.40;;;17.00;99.90;;;;;;5007625;28;20241;-87
2023/10/25 10:16:59;;;;;;;3.00;1.33;;;17.00;99.90;;;;;;5009555;28;20166;-88
2023/10/25 10:19:25;;;;;;;4.97;1.33;;;17.00;99.90;;;;;;4989378;28;20176;-87
2023/10/25 10:22:13;;;;;;;1.50;1.30;;;17.00;99.90;;;;;;5019073;28;20242;-87
2023/10/25 10:24:56;;;;;;;3.63;1.33;;;17.00;99.90;;;;;;4991350;28;20166;-87
2023/10/25 10:27:52;;;;;;;3.30;1.37;;;17.00;99.90;;;;;;5025282;28;20172;-87
2023/10/25 10:30:40;;;;;;;2.63;1.40;;;17.00;99.90;;;;;;5008770;28;20663;-87
2023/10/25 10:33:12;;;;;;;2.33;1.20;;;17.00;99.90;;;;;;5001298;28;20186;-88
2023/10/25 10:35:48;;;;;;;2.10;1.23;;;17.00;99.90;;;;;;4993837;28;20466;-88
2023/10/25 10:38:14;;;;;;;2.57;1.20;;;17.00;99.90;;;;;;5016515;28;20176;-88
2023/10/25 10:40:39;;;;;;;1.50;1.10;;;17.00;99.90;;;;;;5007411;28;20168;-87
2023/10/25 10:43:07;;;;;;;2.33;1.30;;;17.00;99.90;;;;;;4998148;28;20196;-87
2023/10/25 10:45:35;;;;;;;4.30;1.37;;;17.00;99.90;;;;;;5007832;28;20321;-87
2023/10/25 10:48:07;;;;;;;1.67;1.10;;;16.90;99.90;;;;;;5001707;28;20188;-87
2023/10/25 10:50:33;;;;;;;2.23;1.30;;;17.00;99.90;;;;;;4990320;28;20173;-87
2023/10/25 10:53:00;;;;;;;2.10;1.10;;;17.00;99.90;;;;;;5002211;28;20182;-87
2023/10/25 10:55:26;;;;;;;2.00;1.13;;;17.00;99.90;;;;;;4990777;28;20459;-87
2023/10/25 10:57:52;;;;;;;2.50;1.23;;;17.00;99.90;;;;;;5008004;28;20183;-87
2023/10/25 11:00:19;;;;;;;2.27;1.30;;;17.00;99.90;;;;;;5007810;28;20172;-87
2023/10/25 11:02:49;;;;;;;1.87;1.20;;;17.00;99.90;;;;;;5017706;28;20284;-88
2023/10/25 11:05:17;;;;;;;3.13;1.20;;;17.00;99.90;;;;;;5005214;28;20566;-86
2023/10/25 11:07:44;;;;;;;1.90;1.30;;;17.00;99.90;;;;;;4997770;28;20166;-86
2023/10/25 11:10:10;;;;;;;2.10;1.17;;;17.00;99.90;;;;;;5004017;28;20172;-86
2023/10/25 11:12:36;;;;;;;2.63;1.40;;;17.00;99.90;;;;;;5003139;28;20460;-88
2023/10/25 11:15:06;;;;;;;3.40;1.30;;;16.90;99.90;;;;;;5004099;28;20176;-86
2023/10/25 11:17:35;;;;;;;3.87;1.50;;;16.90;99.90;;;;;;5009933;28;20182;-86
2023/10/25 11:20:02;;;;;;;3.80;1.60;;;16.90;99.90;;;;;;5008592;28;20181;-86
2023/10/25 11:22:30;;;;;;;2.20;1.30;;;16.90;99.90;;;;;;5007655;28;20455;-86
2023/10/25 11:24:58;;;;;;;2.90;1.43;;;17.00;99.90;;;;;;5017227;28;20239;-85
2023/10/25 11:27:32;;;;;;;4.47;1.50;;;17.00;99.90;;;;;;4992148;28;20165;-86
2023/10/25 11:30:00;;;;;;;2.67;1.30;;;17.00;99.90;;;;;;5013723;28;20165;-86
2023/10/25 11:32:28;;;;;;;1.90;1.17;;;16.90;99.90;;;;;;5024655;28;20179;-86
2023/10/25 11:34:56;;;;;;;1.97;1.40;;;17.00;99.90;;;;;;5017225;28;20271;-86
2023/10/25 11:37:22;;;;;;;2.50;1.57;;;16.90;99.90;;;;;;4989186;28;20181;-86
2023/10/25 11:40:00;;;;;;;2.57;1.47;;;17.00;99.90;;;;;;4996638;28;20452;-86
2023/10/25 11:42:27;;;;;;;3.23;1.10;;;16.90;99.90;;;;;;4988220;28;20228;-86
2023/10/25 11:44:54;;;;;;;3.10;1.40;;;17.00;99.90;;;;;;4993319;28;20474;-86
2023/10/25 11:47:21;;;;;;;1.97;1.40;;;16.90;99.90;;;;;;5003888;28;20173;-86
2023/10/25 11:49:52;;;;;;;1.90;1.37;;;17.00;99.90;;;;;;5014297;28;20176;-86
2023/10/25 11:52:22;;;;;;;1.93;1.33;;;17.00;99.90;;;;;;5005126;28;20187;-86
2023/10/25 11:54:49;;;;;;;3.90;1.50;;;16.90;99.90;;;;;;4991809;28;20169;-86
2023/10/25 11:57:15;;;;;;;3.73;1.60;;;16.90;99.90;;;;;;5023598;28;20210;-86
2023/10/25 11:59:41;;;;;;;3.57;1.40;;;16.90;99.90;;;;;;4994544;28;20211;-86
2023/10/25 12:02:07;;;;;;;1.93;1.33;;;16.90;99.90;;;;;;5003937;28;20200;-87
2023/10/25 12:04:33;;;;;;;2.57;1.23;;;16.90;99.90;;;;;;5001386;28;20730;-86
2023/10/25 12:06:58;;;;;;;2.87;1.40;;;16.90;99.90;;;;;;5005496;28;20526;-87
2023/10/25 12:09:24;;;;;;;2.47;1.57;;;16.90;99.90;;;;;;5001427;28;20202;-87
2023/10/25 12:11:50;;;;;;;1.90;1.50;;;16.90;99.90;;;;;;4987880;28;20255;-86
2023/10/25 12:14:16;;;;;;;2.13;1.30;;;16.90;99.90;;;;;;4994042;28;20203;-86
2023/10/25 12:16:42;;;;;;;2.73;1.40;;;16.90;99.90;;;;;;5002025;28;20173;-86
2023/10/25 12:19:07;;;;;;;2.50;1.40;;;16.90;99.90;;;;;;5027836;28;20183;-86
2023/10/25 12:21:33;;;;;;;2.70;1.60;;;16.90;99.90;;;;;;4998633;28;20430;-86
2023/10/25 12:23:58;;;;;;;2.33;1.30;;;16.90;99.90;;;;;;5010886;28;20176;-86
2023/10/25 12:26:24;;;;;;;2.30;1.50;;;16.90;99.90;;;;;;5001591;28;20164;-86
2023/10/25 12:28:50;;;;;;;4.23;1.30;;;16.90;99.90;;;;;;4991470;28;20176;-86
2023/10/25 12:31:16;;;;;;;2.20;1.63;;;16.90;99.90;;;;;;5003912;28;20219;-86
2023/10/25 12:33:41;;;;;;;4.00;1.40;;;16.90;99.90;;;;;;4991988;28;20194;-86
2023/10/25 12:36:07;;;;;;;1.77;1.20;;;16.90;99.90;;;;;;5002362;28;20331;-86
2023/10/25 12:38:33;;;;;;;1.80;1.43;;;16.90;99.90;;;;;;5010906;28;20165;-85
2023/10/25 12:40:59;;;;;;;3.10;1.70;;;16.90;99.90;;;;;;4999953;28;20175;-86
2023/10/25 12:43:24;;;;;;;3.37;1.40;;;16.90;99.90;;;;;;4994229;28;20233;-86
2023/10/25 12:45:51;;;;;;;2.73;1.60;;;16.90;99.90;;;;;;5017424;28;20292;-86
2023/10/25 12:48:17;;;;;;;2.50;1.50;;;16.90;99.90;;;;;;5012645;28;20196;-87
2023/10/25 12:50:42;;;;;;;2.40;1.30;;;16.90;99.90;;;;;;4994880;28;20173;-87
2023/10/25 12:53:08;;;;;;;1.80;1.30;;;16.90;99.90;;;;;;4997005;28;20178;-87